createdAt,value
2018-08-27T00:02:13.012Z,15.60
2018-08-27T00:04:41.685Z,15.50
2018-08-27T00:07:09.474Z,16.00
2018-08-27T00:09:37.696Z,15.00
2018-08-27T00:12:05.706Z,15.90
2018-08-27T00:14:34.012Z,15.30
2018-08-27T00:17:01.722Z,15.40
2018-08-27T00:19:30.700Z,15.70
2018-08-27T00:21:58.558Z,15.50
2018-08-27T00:24:28.629Z,15.60
2018-08-27T00:26:57.737Z,16.30
2018-08-27T00:29:26.314Z,15.60
2018-08-27T00:32:13.838Z,15.90
2018-08-27T00:34:47.215Z,17.50
2018-08-27T00:37:15.030Z,19.80
2018-08-27T00:39:43.673Z,20.10
2018-08-27T00:42:46.069Z,20.40
2018-08-27T00:45:13.987Z,19.80
2018-08-27T00:47:51.695Z,20.60
2018-08-27T00:53:13.358Z,21.10
2018-08-27T00:56:24.646Z,21.20
2018-08-27T00:59:29.522Z,21.30
2018-08-27T01:01:57.452Z,21.10
2018-08-27T01:04:25.564Z,21.60
2018-08-27T01:06:54.209Z,21.10
2018-08-27T01:09:22.088Z,20.80
2018-08-27T01:11:53.675Z,20.40
2018-08-27T01:14:41.051Z,20.40
2018-08-27T01:17:09.717Z,20.30
2018-08-27T01:19:53.272Z,19.60
2018-08-27T01:25:09.421Z,20.50
2018-08-27T01:27:37.716Z,20.20
2018-08-27T01:30:06.072Z,20.30
2018-08-27T01:32:34.663Z,20.10
2018-08-27T01:35:03.775Z,20.00
2018-08-27T01:37:31.454Z,20.10
2018-08-27T01:39:59.150Z,20.30
2018-08-27T01:42:27.511Z,19.90
2018-08-27T01:44:56.051Z,20.00
2018-08-27T01:47:24.210Z,19.70
2018-08-27T01:49:52.718Z,19.90
2018-08-27T01:52:21.184Z,19.80
2018-08-27T01:54:49.105Z,20.00
2018-08-27T01:57:17.955Z,20.00
2018-08-27T01:59:53.110Z,20.40
2018-08-27T02:02:21.424Z,20.00
2018-08-27T02:04:49.176Z,20.20
2018-08-27T02:07:16.903Z,20.40
2018-08-27T02:09:51.830Z,20.40
2018-08-27T02:12:21.235Z,19.90
2018-08-27T02:14:51.280Z,19.80
2018-08-27T02:17:20.853Z,19.40
2018-08-27T02:19:48.907Z,19.40
2018-08-27T02:22:16.655Z,21.00
2018-08-27T02:24:45.972Z,20.90
2018-08-27T02:27:13.566Z,21.10
2018-08-27T02:29:41.458Z,21.00
2018-08-27T02:32:10.734Z,20.10
2018-08-27T02:34:38.823Z,19.50
2018-08-27T02:37:11.675Z,19.40
2018-08-27T02:39:39.727Z,19.50
2018-08-27T02:45:08.362Z,19.50
2018-08-27T02:47:36.116Z,21.10
2018-08-27T02:50:03.896Z,20.90
2018-08-27T02:52:31.779Z,21.00
2018-08-27T02:54:59.756Z,20.50
2018-08-27T02:57:27.475Z,20.00
2018-08-27T02:59:56.576Z,20.10
2018-08-27T03:02:24.254Z,20.30
2018-08-27T03:04:52.379Z,20.00
2018-08-27T03:07:20.402Z,20.00
2018-08-27T03:09:48.290Z,20.70
2018-08-27T03:12:16.097Z,21.00
2018-08-27T03:14:43.974Z,21.60
2018-08-27T03:17:11.623Z,20.80
2018-08-27T03:19:39.219Z,20.90
2018-08-27T03:22:09.662Z,20.60
2018-08-27T03:24:37.506Z,20.10
2018-08-27T03:27:05.250Z,20.20
2018-08-27T03:29:33.047Z,20.40
2018-08-27T03:32:00.781Z,20.20
2018-08-27T03:34:28.442Z,20.20
2018-08-27T03:36:56.502Z,20.30
2018-08-27T03:39:24.213Z,20.40
2018-08-27T03:41:51.819Z,20.60
2018-08-27T03:44:20.239Z,20.70
2018-08-27T03:46:47.956Z,20.40
2018-08-27T03:49:15.646Z,20.70
2018-08-27T03:51:43.278Z,20.90
2018-08-27T03:54:11.893Z,20.80
2018-08-27T03:56:39.551Z,21.00
2018-08-27T03:59:08.340Z,21.00
2018-08-27T04:01:45.664Z,21.70
2018-08-27T04:04:13.333Z,21.40
2018-08-27T04:06:41.259Z,21.50
2018-08-27T04:09:09.603Z,22.40
2018-08-27T04:11:37.337Z,21.70
2018-08-27T04:14:05.107Z,21.80
2018-08-27T04:16:33.066Z,21.90
2018-08-27T04:19:00.774Z,21.80
2018-08-27T04:21:29.482Z,21.90
2018-08-27T04:23:57.184Z,21.80
2018-08-27T04:26:25.009Z,21.70
2018-08-27T04:28:52.755Z,21.60
2018-08-27T04:31:22.227Z,21.80
2018-08-27T04:33:50.295Z,22.20
2018-08-27T04:36:18.041Z,21.80
2018-08-27T04:38:45.864Z,21.80
2018-08-27T04:41:13.600Z,22.40
2018-08-27T04:43:41.518Z,22.10
2018-08-27T04:46:09.388Z,22.80
2018-08-27T04:48:37.612Z,22.80
2018-08-27T04:51:06.325Z,22.90
2018-08-27T04:53:34.115Z,22.90
2018-08-27T04:56:01.855Z,22.90
2018-08-27T04:58:45.324Z,23.00
2018-08-27T05:01:13.185Z,22.70
2018-08-27T05:03:40.992Z,23.00
2018-08-27T05:06:10.234Z,22.60
2018-08-27T05:08:37.952Z,23.00
2018-08-27T05:11:06.146Z,23.10
2018-08-27T05:13:34.108Z,24.10
2018-08-27T05:16:01.831Z,24.60
2018-08-27T05:18:29.726Z,24.70
2018-08-27T05:20:57.448Z,24.90
2018-08-27T05:23:25.330Z,24.80
2018-08-27T05:25:56.195Z,26.00
2018-08-27T05:28:23.979Z,25.60
2018-08-27T05:30:51.725Z,25.50
2018-08-27T05:33:19.616Z,26.20
2018-08-27T05:35:47.631Z,25.80
2018-08-27T05:38:15.969Z,25.90
2018-08-27T05:40:58.239Z,26.20
2018-08-27T05:43:26.134Z,26.10
2018-08-27T05:45:53.876Z,26.50
2018-08-27T05:48:22.541Z,25.80
2018-08-27T05:50:50.665Z,25.50
2018-08-27T05:53:18.652Z,25.50
2018-08-27T05:55:47.650Z,25.50
2018-08-27T05:58:15.624Z,25.50
2018-08-27T06:00:43.997Z,25.60
2018-08-27T06:03:12.023Z,25.70
2018-08-27T06:05:40.071Z,25.80
2018-08-27T06:08:07.698Z,25.40
2018-08-27T06:10:37.445Z,26.00
2018-08-27T06:13:05.776Z,26.50
2018-08-27T06:15:43.223Z,26.60
2018-08-27T06:18:12.368Z,27.30
2018-08-27T06:20:40.494Z,27.60
2018-08-27T06:23:08.231Z,27.70
2018-08-27T06:25:35.905Z,28.00
2018-08-27T06:28:11.954Z,28.20
2018-08-27T06:30:39.870Z,28.20
2018-08-27T06:33:08.991Z,28.50
2018-08-27T06:35:37.094Z,28.40
2018-08-27T06:38:05.350Z,28.70
2018-08-27T06:40:33.060Z,29.50
2018-08-27T06:43:00.901Z,28.70
2018-08-27T06:45:28.707Z,28.60
2018-08-27T06:47:56.382Z,29.10
2018-08-27T06:50:24.296Z,29.40
2018-08-27T06:52:52.834Z,29.90
2018-08-27T06:55:21.227Z,30.10
2018-08-27T06:57:48.996Z,31.00
2018-08-27T07:00:17.442Z,30.80
2018-08-27T07:02:45.274Z,30.80
2018-08-27T07:05:13.043Z,31.60
2018-08-27T07:07:42.159Z,31.70
2018-08-27T07:10:09.814Z,32.50
2018-08-27T07:12:37.751Z,32.70
2018-08-27T07:15:06.198Z,32.50
2018-08-27T07:17:33.927Z,32.80
2018-08-27T07:20:03.396Z,32.70
2018-08-27T07:22:32.139Z,32.10
2018-08-27T07:25:00.211Z,31.80
2018-08-27T07:27:32.321Z,31.90
2018-08-27T07:30:00.078Z,31.40
2018-08-27T07:32:27.865Z,31.00
2018-08-27T07:34:56.176Z,31.00
2018-08-27T07:37:23.916Z,31.00
2018-08-27T07:39:52.851Z,30.90
2018-08-27T07:42:20.893Z,31.00
2018-08-27T07:44:48.611Z,31.80
2018-08-27T07:47:16.262Z,31.60
2018-08-27T07:49:44.243Z,31.70
2018-08-27T07:52:12.265Z,31.80
2018-08-27T07:54:39.999Z,32.20
2018-08-27T07:57:07.978Z,32.50
2018-08-27T07:59:36.781Z,32.50
2018-08-27T08:02:04.682Z,32.40
2018-08-27T08:04:34.336Z,33.70
2018-08-27T08:07:01.996Z,32.90
2018-08-27T08:09:29.755Z,32.30
2018-08-27T08:11:57.628Z,32.40
2018-08-27T08:14:25.262Z,32.10
2018-08-27T08:16:53.156Z,31.60
2018-08-27T08:19:20.813Z,32.10
2018-08-27T08:21:48.918Z,31.70
2018-08-27T08:24:16.893Z,32.10
2018-08-27T08:26:47.847Z,33.40
2018-08-27T08:29:15.807Z,33.20
2018-08-27T08:31:43.563Z,33.90
2018-08-27T08:34:11.555Z,33.60
2018-08-27T08:36:39.244Z,33.90
2018-08-27T08:39:07.008Z,33.80
2018-08-27T08:41:35.000Z,34.30
2018-08-27T08:44:03.207Z,34.40
2018-08-27T08:46:31.016Z,34.80
2018-08-27T08:48:59.572Z,35.50
2018-08-27T08:51:27.265Z,35.40
2018-08-27T08:53:55.288Z,35.40
2018-08-27T08:56:22.953Z,35.40
2018-08-27T08:58:50.626Z,35.00
2018-08-27T09:01:19.192Z,35.60
2018-08-27T09:03:47.276Z,35.80
2018-08-27T09:06:15.172Z,36.00
2018-08-27T09:08:43.144Z,35.70
2018-08-27T09:11:10.763Z,36.10
2018-08-27T09:13:38.712Z,36.20
2018-08-27T09:16:06.361Z,36.20
2018-08-27T09:18:34.148Z,36.20
2018-08-27T09:21:01.862Z,35.80
2018-08-27T09:23:29.532Z,36.90
2018-08-27T09:25:57.142Z,36.10
2018-08-27T09:28:24.865Z,36.20
2018-08-27T09:30:53.067Z,36.40
2018-08-27T09:33:21.652Z,36.10
2018-08-27T09:35:49.639Z,36.60
2018-08-27T09:38:17.403Z,36.90
2018-08-27T09:40:44.987Z,36.80
2018-08-27T09:43:12.621Z,37.30
2018-08-27T09:45:41.241Z,37.50
2018-08-27T09:48:10.856Z,38.00
2018-08-27T09:50:38.587Z,38.00
2018-08-27T09:53:06.250Z,38.10
2018-08-27T09:55:35.376Z,38.20
2018-08-27T09:58:03.443Z,38.80
2018-08-27T10:00:36.517Z,38.20
2018-08-27T10:03:04.156Z,38.20
2018-08-27T10:05:34.199Z,38.30
2018-08-27T10:08:02.374Z,37.80
2018-08-27T10:10:31.076Z,38.50
2018-08-27T10:12:58.835Z,38.60
2018-08-27T10:15:26.678Z,39.00
2018-08-27T10:17:54.354Z,38.60
2018-08-27T10:20:22.086Z,38.70
2018-08-27T10:22:50.341Z,38.80
2018-08-27T10:25:18.116Z,39.00
2018-08-27T10:27:46.032Z,39.10
2018-08-27T10:30:13.891Z,39.50
2018-08-27T10:32:41.789Z,40.30
2018-08-27T10:35:09.714Z,40.50
2018-08-27T10:37:43.752Z,40.40
2018-08-27T10:40:11.447Z,41.20
2018-08-27T10:42:39.831Z,41.60
2018-08-27T10:45:07.926Z,41.60
2018-08-27T10:47:35.551Z,41.30
2018-08-27T10:50:05.287Z,41.00
2018-08-27T10:52:33.389Z,41.50
2018-08-27T10:55:01.064Z,41.60
2018-08-27T10:57:28.654Z,41.60
2018-08-27T10:59:56.522Z,41.50
2018-08-27T11:02:24.326Z,41.50
2018-08-27T11:04:52.289Z,41.50
2018-08-27T11:07:23.676Z,41.60
2018-08-27T11:09:52.524Z,41.60
2018-08-27T11:12:21.440Z,41.50
2018-08-27T11:14:49.277Z,41.70
2018-08-27T11:17:16.925Z,41.60
2018-08-27T11:19:44.778Z,41.70
2018-08-27T11:22:13.147Z,41.60
2018-08-27T11:24:40.884Z,41.70
2018-08-27T11:27:08.662Z,41.70
2018-08-27T11:29:41.216Z,41.60
2018-08-27T11:32:08.898Z,41.70
2018-08-27T11:34:36.494Z,41.70
2018-08-27T11:37:06.597Z,41.70
2018-08-27T11:39:34.795Z,41.80
2018-08-27T11:42:02.486Z,41.70
2018-08-27T11:44:30.179Z,41.80
2018-08-27T11:46:57.806Z,41.80
2018-08-27T11:49:25.699Z,41.80
2018-08-27T11:51:58.573Z,41.70
2018-08-27T11:54:26.351Z,41.70
2018-08-27T11:56:55.134Z,41.70
2018-08-27T11:59:22.982Z,41.80
2018-08-27T12:01:51.201Z,41.80
2018-08-27T12:04:19.120Z,41.90
2018-08-27T12:06:46.796Z,41.60
2018-08-27T12:09:14.396Z,41.40
2018-08-27T12:11:42.123Z,41.60
2018-08-27T12:14:09.787Z,42.00
2018-08-27T12:16:37.797Z,41.90
2018-08-27T12:19:05.471Z,41.80
2018-08-27T12:21:33.268Z,41.50
2018-08-27T12:24:00.829Z,41.50
2018-08-27T12:26:29.181Z,41.70
2018-08-27T12:28:56.940Z,41.00
2018-08-27T12:31:25.301Z,41.20
2018-08-27T12:33:53.218Z,41.10
2018-08-27T12:36:20.981Z,40.80
2018-08-27T12:38:48.638Z,40.60
2018-08-27T12:41:16.484Z,40.60
2018-08-27T12:43:44.107Z,40.80
2018-08-27T12:46:12.060Z,40.80
2018-08-27T12:48:40.360Z,40.70
2018-08-27T12:51:08.134Z,40.70
2018-08-27T12:53:36.780Z,40.00
2018-08-27T12:56:04.631Z,40.10
2018-08-27T12:58:33.907Z,40.00
2018-08-27T13:01:01.628Z,39.70
2018-08-27T13:03:29.235Z,39.50
2018-08-27T13:05:56.939Z,39.70
2018-08-27T13:08:25.551Z,39.70
2018-08-27T13:10:53.508Z,40.00
2018-08-27T13:13:21.965Z,39.70
2018-08-27T13:15:49.632Z,39.70
2018-08-27T13:18:17.227Z,39.50
2018-08-27T13:20:44.932Z,40.00
2018-08-27T13:23:12.819Z,39.80
2018-08-27T13:25:40.428Z,39.70
2018-08-27T13:28:08.168Z,40.00
2018-08-27T13:30:36.170Z,40.00
2018-08-27T13:33:05.137Z,40.00
2018-08-27T13:35:33.658Z,40.10
2018-08-27T13:38:01.507Z,40.10
2018-08-27T13:40:30.228Z,40.10
2018-08-27T13:42:57.981Z,40.60
2018-08-27T13:45:26.182Z,40.40
2018-08-27T13:47:55.873Z,40.70
2018-08-27T13:50:23.892Z,40.80
2018-08-27T13:52:52.422Z,40.80
2018-08-27T13:55:20.165Z,40.50
2018-08-27T13:57:48.024Z,40.40
2018-08-27T14:00:20.927Z,40.30
2018-08-27T14:02:48.657Z,40.30
2018-08-27T14:05:16.407Z,40.40
2018-08-27T14:07:44.017Z,40.30
2018-08-27T14:10:11.799Z,40.80
2018-08-27T14:12:39.601Z,40.40
2018-08-27T14:15:07.636Z,40.00
2018-08-27T14:17:35.395Z,40.60
2018-08-27T14:20:04.521Z,40.30
2018-08-27T14:22:32.045Z,40.30
2018-08-27T14:24:59.745Z,40.00
2018-08-27T14:27:27.752Z,40.00
2018-08-27T14:29:55.519Z,39.50
2018-08-27T14:32:23.168Z,39.30
2018-08-27T14:34:52.813Z,39.30
2018-08-27T14:37:20.583Z,39.50
2018-08-27T14:39:48.166Z,39.10
2018-08-27T14:42:16.601Z,39.10
2018-08-27T14:44:51.302Z,38.80
2018-08-27T14:47:18.925Z,38.80
2018-08-27T14:49:46.580Z,38.50
2018-08-27T14:52:20.488Z,38.30
2018-08-27T14:54:54.079Z,38.40
2018-08-27T14:57:21.816Z,38.20
2018-08-27T14:59:50.323Z,38.00
2018-08-27T15:02:18.256Z,38.00
2018-08-27T15:04:45.911Z,38.20
2018-08-27T15:07:13.770Z,38.40
2018-08-27T15:09:41.558Z,38.60
2018-08-27T15:12:09.330Z,38.60
2018-08-27T15:14:37.588Z,38.70
2018-08-27T15:17:05.512Z,38.60
2018-08-27T15:19:33.101Z,38.50
2018-08-27T15:22:00.761Z,38.50
2018-08-27T15:24:28.545Z,38.50
2018-08-27T15:26:56.220Z,38.40
2018-08-27T15:29:23.911Z,38.50
2018-08-27T15:31:51.735Z,38.60
2018-08-27T15:34:19.435Z,38.80
2018-08-27T15:36:47.455Z,38.80
2018-08-27T15:39:17.319Z,38.70
2018-08-27T15:41:45.131Z,38.70
2018-08-27T15:44:12.956Z,38.80
2018-08-27T15:46:41.864Z,38.80
2018-08-27T15:49:09.880Z,38.80
2018-08-27T15:51:41.409Z,38.60
2018-08-27T15:54:10.160Z,38.80
2018-08-27T15:56:38.350Z,38.70
2018-08-27T15:59:07.501Z,38.90
2018-08-27T16:01:35.131Z,39.00
2018-08-27T16:04:02.804Z,39.10
2018-08-27T16:06:30.483Z,39.00
2018-08-27T16:08:58.377Z,39.00
2018-08-27T16:11:26.167Z,38.90
2018-08-27T16:13:54.008Z,38.80
2018-08-27T16:16:26.600Z,39.00
2018-08-27T16:18:55.202Z,38.90
2018-08-27T16:21:23.462Z,38.80
2018-08-27T16:23:51.233Z,38.70
2018-08-27T16:26:20.263Z,38.80
2018-08-27T16:28:48.348Z,38.80
2018-08-27T16:31:15.940Z,39.00
2018-08-27T16:33:44.369Z,38.90
2018-08-27T16:36:11.985Z,38.90
2018-08-27T16:38:40.684Z,38.60
2018-08-27T16:41:08.402Z,38.60
2018-08-27T16:43:36.053Z,38.50
2018-08-27T16:46:04.015Z,38.80
2018-08-27T16:48:31.655Z,39.70
2018-08-27T16:50:59.828Z,38.90
2018-08-27T16:53:27.450Z,38.90
2018-08-27T16:55:55.169Z,39.00
2018-08-27T16:58:23.027Z,39.00
2018-08-27T17:00:50.676Z,39.00
2018-08-27T17:03:19.174Z,39.30
2018-08-27T17:05:46.951Z,39.50
2018-08-27T17:08:15.639Z,39.70
2018-08-27T17:10:44.104Z,39.60
2018-08-27T17:13:11.921Z,39.40
2018-08-27T17:15:40.505Z,39.30
2018-08-27T17:18:09.217Z,39.40
2018-08-27T17:20:39.006Z,38.90
2018-08-27T17:23:06.706Z,39.10
2018-08-27T17:25:34.352Z,38.90
2018-08-27T17:28:04.110Z,38.60
2018-08-27T17:30:32.810Z,38.40
2018-08-27T17:33:00.836Z,38.50
2018-08-27T17:35:28.727Z,38.40
2018-08-27T17:37:56.671Z,38.80
2018-08-27T17:40:25.232Z,38.50
2018-08-27T17:42:53.145Z,38.50
2018-08-27T17:45:21.060Z,38.50
2018-08-27T17:48:01.554Z,38.80
2018-08-27T17:50:29.383Z,38.80
2018-08-27T17:52:57.424Z,38.90
2018-08-27T17:55:25.184Z,39.40
2018-08-27T17:57:53.122Z,39.80
2018-08-27T18:00:20.954Z,39.80
2018-08-27T18:02:48.703Z,40.00
2018-08-27T18:05:16.403Z,40.00
2018-08-27T18:07:44.307Z,40.40
2018-08-27T18:10:12.007Z,40.40
2018-08-27T18:12:39.799Z,40.40
2018-08-27T18:15:08.994Z,41.00
2018-08-27T18:17:37.456Z,40.90
2018-08-27T18:20:08.619Z,41.00
2018-08-27T18:22:36.425Z,41.30
2018-08-27T18:25:04.240Z,41.40
2018-08-27T18:27:32.103Z,41.10
2018-08-27T18:29:59.820Z,41.30
2018-08-27T18:32:30.423Z,41.80
2018-08-27T18:34:58.051Z,41.80
2018-08-27T18:37:25.781Z,42.30
2018-08-27T18:39:53.739Z,42.60
2018-08-27T18:42:21.513Z,43.00
2018-08-27T18:44:49.363Z,43.10
2018-08-27T18:47:17.000Z,43.10
2018-08-27T18:49:44.603Z,42.80
2018-08-27T18:52:12.461Z,43.00
2018-08-27T18:54:40.573Z,43.00
2018-08-27T18:57:08.346Z,42.80
2018-08-27T18:59:36.004Z,42.60
2018-08-27T19:02:03.669Z,42.60
2018-08-27T19:04:31.299Z,42.60
2018-08-27T19:06:59.048Z,42.60
2018-08-27T19:09:27.842Z,42.60
2018-08-27T19:11:56.671Z,42.50
2018-08-27T19:14:24.326Z,43.20
2018-08-27T19:16:56.019Z,43.10
2018-08-27T19:19:27.210Z,43.20
2018-08-27T19:21:56.256Z,43.10
2018-08-27T19:24:24.587Z,43.00
2018-08-27T19:26:52.318Z,43.10
2018-08-27T19:29:19.891Z,43.10
2018-08-27T19:31:47.603Z,43.00
2018-08-27T19:34:15.255Z,43.00
2018-08-27T19:36:42.961Z,43.10
2018-08-27T19:39:10.912Z,43.00
2018-08-27T19:41:43.745Z,43.00
2018-08-27T19:44:13.108Z,43.00
2018-08-27T19:46:40.854Z,43.00
2018-08-27T19:49:08.760Z,43.10
2018-08-27T19:51:36.386Z,43.00
2018-08-27T19:54:04.140Z,43.00
2018-08-27T19:56:31.835Z,43.00
2018-08-27T19:59:00.924Z,43.00
2018-08-27T20:01:33.174Z,43.00
2018-08-27T20:04:02.352Z,43.00
2018-08-27T20:06:30.088Z,43.00
2018-08-27T20:08:57.830Z,43.00
2018-08-27T20:11:33.880Z,43.00
2018-08-27T20:14:11.017Z,43.00
2018-08-27T20:16:46.726Z,43.00
2018-08-27T20:19:15.226Z,43.00
2018-08-27T20:21:43.194Z,42.90
2018-08-27T20:24:18.605Z,42.90
2018-08-27T20:26:46.278Z,42.90
2018-08-27T20:29:16.140Z,42.90
2018-08-27T20:31:43.814Z,42.90
2018-08-27T20:34:11.546Z,42.90
2018-08-27T20:36:39.925Z,42.90
2018-08-27T20:39:08.718Z,42.90
2018-08-27T20:41:36.556Z,42.80
2018-08-27T20:44:04.405Z,42.90
2018-08-27T20:46:32.606Z,42.80
2018-08-27T20:49:11.757Z,43.00
2018-08-27T20:51:39.541Z,42.80
2018-08-27T20:54:07.349Z,43.30
2018-08-27T20:56:35.067Z,43.50
2018-08-27T20:59:03.984Z,43.80
2018-08-27T21:01:31.985Z,43.70
2018-08-27T21:03:59.763Z,44.00
2018-08-27T21:06:27.414Z,44.00
2018-08-27T21:08:55.095Z,44.00
2018-08-27T21:11:22.792Z,44.00
2018-08-27T21:13:50.590Z,44.00
2018-08-27T21:16:18.545Z,44.00
2018-08-27T21:18:46.297Z,44.10
2018-08-27T21:21:15.345Z,44.20
2018-08-27T21:23:43.147Z,44.50
2018-08-27T21:26:12.038Z,44.70
2018-08-27T21:28:40.491Z,45.10
2018-08-27T21:31:08.184Z,45.70
2018-08-27T21:33:35.835Z,46.00
2018-08-27T21:36:03.541Z,45.90
2018-08-27T21:38:31.281Z,46.10
2018-08-27T21:40:58.946Z,46.20
2018-08-27T21:43:27.052Z,46.50
2018-08-27T21:45:54.857Z,46.40
2018-08-27T21:48:22.601Z,46.40
2018-08-27T21:50:50.299Z,46.50
2018-08-27T21:53:17.967Z,46.50
2018-08-27T21:55:45.736Z,46.60
2018-08-27T21:58:13.920Z,46.70
2018-08-27T22:00:50.632Z,46.60
2018-08-27T22:03:24.267Z,46.30
2018-08-27T22:05:52.480Z,46.30
2018-08-27T22:08:20.362Z,46.50
2018-08-27T22:10:48.674Z,46.70
2018-08-27T22:13:16.260Z,46.50
2018-08-27T22:15:43.871Z,46.30
2018-08-27T22:18:11.868Z,46.30
2018-08-27T22:20:39.533Z,46.00
2018-08-27T22:23:08.363Z,46.00
2018-08-27T22:25:38.135Z,46.30
2018-08-27T22:28:05.757Z,46.50
2018-08-27T22:30:33.945Z,46.70
2018-08-27T22:33:02.104Z,46.50
2018-08-27T22:35:30.219Z,46.40
2018-08-27T22:37:57.904Z,46.20
2018-08-27T22:40:28.859Z,45.70
2018-08-27T22:42:56.543Z,45.40
2018-08-27T22:45:28.743Z,44.20
2018-08-27T22:47:56.512Z,43.60
2018-08-27T22:50:24.400Z,43.40
2018-08-27T22:52:52.743Z,43.30
2018-08-27T22:55:20.639Z,42.40
2018-08-27T22:57:51.264Z,42.50
2018-08-27T23:00:28.060Z,40.70
2018-08-27T23:03:01.445Z,40.20
2018-08-27T23:05:29.298Z,40.00
2018-08-27T23:07:57.892Z,38.50
2018-08-27T23:10:25.884Z,38.00
2018-08-27T23:12:53.860Z,37.40
2018-08-27T23:15:21.900Z,36.60
2018-08-27T23:17:49.648Z,36.30
2018-08-27T23:20:18.263Z,35.40
2018-08-27T23:22:46.241Z,36.20
2018-08-27T23:25:13.912Z,35.00
2018-08-27T23:27:44.782Z,34.80
2018-08-27T23:30:13.011Z,34.70
2018-08-27T23:32:41.052Z,34.30
2018-08-27T23:35:08.763Z,34.10
2018-08-27T23:37:36.654Z,34.80
2018-08-27T23:40:06.190Z,35.60
2018-08-27T23:42:33.987Z,36.20
2018-08-27T23:45:01.769Z,35.70
2018-08-27T23:47:30.389Z,35.90
2018-08-27T23:49:58.734Z,35.60
2018-08-27T23:52:27.344Z,35.20
2018-08-27T23:54:55.436Z,35.70
2018-08-27T23:57:23.459Z,35.40
2018-08-27T23:59:51.612Z,35.10
